Time;durP1;ratioP1;P1;durP2;ratioP2;P2;SDS_P1;SDS_P2;PMS_P1;PMS_P2;Temp;Humidity;BMP_temperature;BMP_pressure;BME280_temperature;BME280_humidity;BME280_pressure;Samples;Min_cycle;Max_cycle;Signal;HPM_P1;HPM_P2
2023/08/30 00:01:11;;;;;;;;;;;;;;;16.44;79.07;99804.04;104904;1292;60862;-87
2023/08/30 00:04:52;;;;;;;;;;;;;;;16.44;79.07;99795.00;105004;1293;62174;-87
2023/08/30 00:08:21;;;;;;;;;;;;;;;16.43;79.07;99805.29;104765;1293;73438;-87
2023/08/30 00:11:47;;;;;;;;;;;;;;;16.44;79.07;99809.27;105551;1286;67191;-86
2023/08/30 00:15:15;;;;;;;;;;;;;;;16.42;79.18;99814.02;105537;1287;71354;-87
2023/08/30 00:18:44;;;;;;;;;;;;;;;16.43;79.10;99816.42;105453;1287;62224;-87
2023/08/30 00:22:09;;;;;;;;;;;;;;;16.43;79.16;99815.42;105535;1288;59672;-87
2023/08/30 00:25:38;;;;;;;;;;;;;;;16.42;79.14;99816.67;105456;1287;72474;-86
2023/08/30 00:29:06;;;;;;;;;;;;;;;16.42;79.13;99810.60;105380;1290;70830;-87
2023/08/30 00:32:32;;;;;;;;;;;;;;;16.39;79.19;99803.23;105627;1286;72022;-86
2023/08/30 00:35:59;;;;;;;;;;;;;;;16.38;79.08;99808.54;105408;1286;60310;-87
2023/08/30 00:39:25;;;;;;;;;;;;;;;16.35;79.08;99811.63;105595;1286;60381;-86
2023/08/30 00:42:52;;;;;;;;;;;;;;;16.33;79.22;99815.06;105571;1287;72575;-86
2023/08/30 00:46:18;;;;;;;;;;;;;;;16.32;79.04;99822.42;105579;1286;67836;-85
2023/08/30 00:49:45;;;;;;;;;;;;;;;16.31;79.08;99825.09;105322;1289;71977;-86
2023/08/30 00:53:22;;;;;;;;;;;;;;;;;;;;;
2023/08/30 00:56:38;;;;;;;;;;;;;;;16.28;79.31;99826.96;105355;1289;60228;-86
2023/08/30 01:00:06;;;;;;;;;;;;;;;16.27;79.31;99829.45;105626;1285;72429;-86
2023/08/30 01:03:32;;;;;;;;;;;;;;;16.25;79.19;99831.14;105379;1286;70155;-86
2023/08/30 01:07:03;;;;;;;;;;;;;;;16.24;79.31;99834.30;104828;1297;71284;-86
2023/08/30 01:10:30;;;;;;;;;;;;;;;16.23;79.24;99831.56;104846;1294;60203;-86
2023/08/30 01:13:56;;;;;;;;;;;;;;;16.22;79.31;99822.74;104604;1296;60433;-87
2023/08/30 01:17:22;;;;;;;;;;;;;;;16.21;79.28;99824.90;104608;1295;72671;-87
2023/08/30 01:20:49;;;;;;;;;;;;;;;16.20;79.21;99817.95;104769;1295;67216;-87
2023/08/30 01:24:18;;;;;;;;;;;;;;;16.20;79.43;99812.42;104716;1298;70262;-87
2023/08/30 01:27:45;;;;;;;;;;;;;;;16.19;79.32;99816.98;104804;1298;60570;-87
2023/08/30 01:31:13;;;;;;;;;;;;;;;16.19;79.36;99817.50;104806;1296;59795;-87
2023/08/30 01:34:39;;;;;;;;;;;;;;;16.19;79.38;99808.83;104642;1296;72553;-87
2023/08/30 01:38:07;;;;;;;;;;;;;;;16.18;79.33;99801.73;104755;1298;67310;-87
2023/08/30 01:41:35;;;;;;;;;;;;;;;16.17;79.37;99800.73;104657;1295;72399;-86
2023/08/30 01:45:02;;;;;;;;;;;;;;;16.17;79.45;99800.39;105536;1286;60445;-87
2023/08/30 01:48:29;;;;;;;;;;;;;;;16.18;79.45;99802.42;104864;1297;60317;-86
2023/08/30 01:51:54;;;;;;;;;;;;;;;16.19;79.33;99796.14;105030;1293;74408;-86
2023/08/30 01:55:22;;;;;;;;;;;;;;;16.19;79.42;99794.92;104993;1292;67280;-87
2023/08/30 01:58:49;;;;;;;;;;;;;;;16.18;79.37;99790.80;104855;1294;71141;-86
2023/08/30 02:02:15;;;;;;;;;;;;;;;16.16;79.45;99790.73;105018;1291;62101;-86
2023/08/30 02:05:42;;;;;;;;;;;;;;;16.14;79.41;99784.02;104505;1299;60344;-86
2023/08/30 02:09:09;;;;;;;;;;;;;;;16.13;79.53;99777.80;104542;1300;73679;-87
2023/08/30 02:12:36;;;;;;;;;;;;;;;16.12;79.50;99778.75;104019;1306;67662;-86
2023/08/30 02:16:04;;;;;;;;;;;;;;;16.11;79.58;99775.52;103817;1308;71556;-86
2023/08/30 02:19:31;;;;;;;;;;;;;;;16.12;79.46;99779.64;103983;1310;60390;-87
2023/08/30 02:22:57;;;;;;;;;;;;;;;16.10;79.45;99774.71;103976;1308;61738;-87
2023/08/30 02:26:24;;;;;;;;;;;;;;;16.10;79.50;99762.88;104234;1302;72545;-86
2023/08/30 02:29:51;;;;;;;;;;;;;;;16.09;79.38;99761.92;103700;1308;69065;-87
2023/08/30 02:33:18;;;;;;;;;;;;;;;16.07;79.53;99764.64;103692;1313;71754;-86
2023/08/30 02:36:50;;;;;;;;;;;;;;;16.06;79.50;99773.38;103289;1312;61124;-86
2023/08/30 02:40:16;;;;;;;;;;;;;;;16.05;79.54;99776.73;103364;1316;59746;-86
2023/08/30 02:43:55;;;;;;;;;;;;;;;16.04;79.48;99783.58;103120;1312;73578;-86
2023/08/30 02:47:21;;;;;;;;;;;;;;;16.00;79.53;99789.48;103384;1311;68187;-86
2023/08/30 02:50:48;;;;;;;;;;;;;;;16.00;79.59;99796.08;103466;1312;71272;-86
2023/08/30 02:54:14;;;;;;;;;;;;;;;16.00;79.53;99804.30;103522;1311;60367;-86
2023/08/30 02:57:41;;;;;;;;;;;;;;;15.98;79.57;99802.11;103505;1311;60405;-86
2023/08/30 03:01:09;;;;;;;;;;;;;;;15.97;79.60;99803.23;103467;1313;73873;-86
2023/08/30 03:04:35;;;;;;;;;;;;;;;15.97;79.59;99794.88;103620;1311;68601;-86
2023/08/30 03:08:02;;;;;;;;;;;;;;;15.98;79.61;99795.52;103873;1302;72431;-86
2023/08/30 03:11:28;;;;;;;;;;;;;;;15.98;79.63;99799.54;103566;1308;61227;-86
2023/08/30 03:14:55;;;;;;;;;;;;;;;15.98;79.68;99794.48;103656;1311;61497;-86
2023/08/30 03:18:23;;;;;;;;;;;;;;;15.97;79.65;99795.55;103795;1308;73450;-86
2023/08/30 03:21:49;;;;;;;;;;;;;;;15.96;79.69;99792.85;104275;1302;67460;-87
2023/08/30 03:25:16;;;;;;;;;;;;;;;15.96;79.76;99786.07;104300;1302;74043;-86
2023/08/30 03:28:42;;;;;;;;;;;;;;;15.96;79.81;99780.88;104630;1294;61236;-86
2023/08/30 03:32:09;;;;;;;;;;;;;;;15.95;79.78;99772.71;104869;1296;61209;-86
2023/08/30 03:35:40;;;;;;;;;;;;;;;15.96;79.71;99776.86;104883;1294;73125;-87
2023/08/30 03:39:08;;;;;;;;;;;;;;;15.96;79.73;99776.70;104704;1294;67291;-87
2023/08/30 03:42:35;;;;;;;;;;;;;;;15.96;79.76;99777.89;104754;1294;71364;-86
2023/08/30 03:46:03;;;;;;;;;;;;;;;15.97;79.71;99780.48;104473;1299;61300;-87
2023/08/30 03:49:31;;;;;;;;;;;;;;;15.96;79.72;99789.70;104928;1296;61237;-87
2023/08/30 03:52:58;;;;;;;;;;;;;;;15.95;79.65;99794.61;104557;1302;76817;-86
2023/08/30 03:56:26;;;;;;;;;;;;;;;15.94;79.66;99803.02;104565;1300;67485;-86
2023/08/30 03:59:52;;;;;;;;;;;;;;;15.94;79.79;99803.05;104510;1300;71593;-87
2023/08/30 04:03:19;;;;;;;;;;;;;;;15.95;79.77;99803.86;104523;1299;61594;-87
2023/08/30 04:06:47;;;;;;;;;;;;;;;15.93;79.87;99800.11;104518;1298;61506;-87
2023/08/30 04:10:14;;;;;;;;;;;;;;;15.94;79.71;99794.14;104521;1298;73196;-86
2023/08/30 04:13:40;;;;;;;;;;;;;;;15.94;79.77;99789.14;104216;1306;67326;-87
2023/08/30 04:17:06;;;;;;;;;;;;;;;15.94;79.80;99788.97;104170;1305;70222;-86
2023/08/30 04:20:33;;;;;;;;;;;;;;;15.94;79.86;99787.38;104189;1305;60894;-86
2023/08/30 04:24:01;;;;;;;;;;;;;;;15.94;79.81;99789.83;104474;1299;59507;-86
2023/08/30 04:27:27;;;;;;;;;;;;;;;15.93;79.93;99786.02;104560;1299;73369;-86
2023/08/30 04:30:55;;;;;;;;;;;;;;;15.93;79.80;99781.19;104457;1299;67471;-86
2023/08/30 04:34:23;;;;;;;;;;;;;;;15.94;79.86;99780.11;104359;1300;71303;-86
2023/08/30 04:37:52;;;;;;;;;;;;;;;15.94;79.87;99774.68;104371;1299;62798;-86
2023/08/30 04:41:19;;;;;;;;;;;;;;;15.95;79.86;99774.65;104350;1300;61297;-86
2023/08/30 04:44:45;;;;;;;;;;;;;;;15.96;79.97;99775.11;104420;1303;73475;-86
2023/08/30 04:50:49;;;;;;;;;;;;;;;15.96;79.87;99779.48;105552;1288;130369;-87
2023/08/30 04:54:16;;;;;;;;;;;;;;;15.95;80.00;99784.92;105719;1287;60078;-87
2023/08/30 04:57:44;;;;;;;;;;;;;;;15.96;79.98;99787.13;105696;1289;59813;-87
2023/08/30 05:01:12;;;;;;;;;;;;;;;15.96;79.96;99791.14;105660;1286;73965;-86
2023/08/30 05:04:37;;;;;;;;;;;;;;;15.95;79.92;99792.21;105640;1287;67392;-86
2023/08/30 05:08:04;;;;;;;;;;;;;;;15.94;79.92;99794.50;105641;1289;73977;-86
2023/08/30 05:11:30;;;;;;;;;;;;;;;15.93;80.01;99795.45;104914;1293;61434;-86
2023/08/30 05:14:57;;;;;;;;;;;;;;;15.90;79.91;99803.90;104996;1293;61275;-86
2023/08/30 05:18:25;;;;;;;;;;;;;;;15.88;80.02;99813.02;104422;1300;73157;-86
2023/08/30 05:21:54;;;;;;;;;;;;;;;15.88;80.05;99815.64;104337;1299;67261;-87
2023/08/30 05:25:18;;;;;;;;;;;;;;;15.88;79.97;99810.83;104416;1300;73027;-86
2023/08/30 05:28:44;;;;;;;;;;;;;;;15.87;80.00;99809.44;104458;1305;61128;-87
2023/08/30 05:32:11;;;;;;;;;;;;;;;15.88;80.05;99808.85;104446;1305;61805;-87
2023/08/30 05:35:37;;;;;;;;;;;;;;;15.89;79.88;99808.28;104040;1308;72432;-87
2023/08/30 05:39:05;;;;;;;;;;;;;;;15.90;80.11;99808.27;103811;1305;67495;-86
2023/08/30 05:42:31;;;;;;;;;;;;;;;15.91;79.97;99807.53;104047;1305;71319;-86
2023/08/30 05:46:02;;;;;;;;;;;;;;;15.89;79.83;99817.84;103959;1305;61470;-86
2023/08/30 05:49:24;;;;;;;;;;;;;;;15.88;80.01;99822.08;104195;1300;63021;-87
2023/08/30 05:52:51;;;;;;;;;;;;;;;15.89;79.99;99819.94;104479;1300;74493;-87
2023/08/30 05:56:18;;;;;;;;;;;;;;;15.90;80.03;99826.89;104936;1293;66907;-87
2023/08/30 05:59:25;;;;;;;;;;;;;;;15.91;80.03;99830.47;104901;1292;71183;-84
2023/08/30 06:02:31;;;;;;;;;;;;;;;15.94;80.16;99829.98;104976;1291;61154;-85
2023/08/30 06:05:18;;;;;;;;;;;;;;;15.96;79.93;99825.70;105011;1297;61125;-84
2023/08/30 06:08:04;;;;;;;;;;;;;;;15.97;79.98;99821.48;104802;1293;73662;-86
2023/08/30 06:11:00;;;;;;;;;;;;;;;15.97;79.95;99818.02;104864;1294;71348;-86
2023/08/30 06:13:51;;;;;;;;;;;;;;;15.99;79.99;99819.78;105570;1288;71341;-85
2023/08/30 06:16:38;;;;;;;;;;;;;;;16.02;79.96;99816.87;105431;1288;59727;-85
2023/08/30 06:19:24;;;;;;;;;;;;;;;16.06;80.02;99808.99;105361;1289;61688;-86
2023/08/30 06:22:20;;;;;;;;;;;;;;;16.11;80.09;99807.83;105327;1288;74516;-86
2023/08/30 06:25:26;;;;;;;;;;;;;;;16.18;80.13;99811.81;105344;1288;68080;-85
2023/08/30 06:28:13;;;;;;;;;;;;;;;16.23;79.94;99813.30;105339;1289;71534;-86
2023/08/30 06:30:59;;;;;;;;;;;;;;;16.28;80.07;99813.23;105347;1288;59812;-86
2023/08/30 06:33:48;;;;;;;;;;;;;;;16.33;80.04;99816.81;105253;1294;61309;-86
2023/08/30 06:36:35;;;;;;;;;;;;;;;16.36;80.04;99812.79;105381;1288;73288;-86
2023/08/30 06:39:41;;;;;;;;;;;;;;;16.39;80.05;99815.95;105344;1294;67614;-86
2023/08/30 06:42:35;;;;;;;;;;;;;;;16.40;80.08;99816.42;105402;1289;73279;-86
2023/08/30 06:45:30;;;;;;;;;;;;;;;16.42;80.11;99820.00;105323;1289;59887;-86
2023/08/30 06:48:16;;;;;;;;;;;;;;;16.43;80.03;99821.64;105465;1285;59899;-86
2023/08/30 06:51:03;;;;;;;;;;;;;;;16.45;80.12;99823.80;105574;1285;73247;-86
2023/08/30 06:53:55;;;;;;;;;;;;;;;16.49;80.14;99823.77;105525;1286;68635;-86
2023/08/30 06:56:41;;;;;;;;;;;;;;;16.51;80.05;99825.42;105635;1285;73931;-86
2023/08/30 06:59:47;;;;;;;;;;;;;;;16.50;79.90;99833.63;105502;1285;61155;-86
2023/08/30 07:02:35;;;;;;;;;;;;;;;16.49;79.93;99839.26;105516;1286;61137;-86
2023/08/30 07:05:22;;;;;;;;;;;;;;;16.49;80.00;99836.30;106307;1285;73407;-85
2023/08/30 07:08:28;;;;;;;;;;;;;;;16.49;79.93;99840.84;102382;1286;5181336;-86
2023/08/30 07:11:14;;;;;;;;;;;;;;;16.46;79.90;99843.42;106397;1286;59359;-86
2023/08/30 07:14:16;;;;;;;;;;;;;;;16.47;79.90;99846.86;106441;1286;61238;-86
2023/08/30 07:17:03;;;;;;;;;;;;;;;16.51;80.02;99846.65;105530;1286;77372;-86
2023/08/30 07:19:50;;;;;;;;;;;;;;;16.56;80.06;99845.52;105419;1286;67246;-86
2023/08/30 07:22:56;;;;;;;;;;;;;;;16.61;79.90;99848.36;105632;1285;73699;-87
2023/08/30 07:26:10;;;;;;;;;;;;;;;16.67;79.92;99852.27;105936;1285;59939;-86
2023/08/30 07:29:25;;;;;;;;;;;;;;;16.68;79.78;99851.31;105704;1286;61128;-86
2023/08/30 07:32:51;;;;;;;;;;;;;;;16.65;79.68;99853.22;101748;1285;5156416;-86
2023/08/30 07:36:17;;;;;;;;;;;;;;;16.66;79.92;99849.18;105545;1285;71356;-86
2023/08/30 07:39:39;;;;;;;;;;;;;;;16.71;79.81;99849.42;105518;1286;61096;-85
2023/08/30 07:42:26;;;;;;;;;;;;;;;16.71;79.70;99852.02;105662;1285;60007;-84
2023/08/30 07:45:12;;;;;;;;;;;;;;;16.73;79.76;99854.17;105500;1285;73403;-84
2023/08/30 07:48:15;;;;;;;;;;;;;;;16.75;79.76;99854.77;105579;1285;67630;-85
2023/08/30 07:51:22;;;;;;;;;;;;;;;16.74;79.76;99855.51;105681;1285;72165;-85
2023/08/30 07:54:12;;;;;;;;;;;;;;;16.75;79.81;99856.86;105665;1286;61214;-84
2023/08/30 07:57:18;;;;;;;;;;;;;;;16.77;79.79;99861.95;105438;1286;59822;-85
2023/08/30 08:00:05;;;;;;;;;;;;;;;16.84;79.91;99867.30;105708;1286;72203;-85
2023/08/30 08:03:14;;;;;;;;;;;;;;;16.88;79.95;99869.17;105625;1285;67278;-85
2023/08/30 08:06:40;;;;;;;;;;;;;;;16.87;79.60;99868.91;105747;1285;70333;-86
2023/08/30 08:10:07;;;;;;;;;;;;;;;16.84;79.61;99869.09;105322;1291;59810;-86
2023/08/30 08:13:33;;;;;;;;;;;;;;;16.82;79.56;99868.83;104911;1294;62225;-89
2023/08/30 08:16:59;;;;;;;;;;;;;;;16.83;79.63;99868.95;104894;1293;73550;-87
2023/08/30 08:20:26;;;;;;;;;;;;;;;16.85;79.55;99864.13;104809;1297;67652;-87
2023/08/30 08:23:52;;;;;;;;;;;;;;;16.87;79.56;99865.59;105011;1297;72272;-87
2023/08/30 08:27:19;;;;;;;;;;;;;;;16.87;79.70;99867.48;104810;1296;62164;-87
2023/08/30 08:30:50;;;;;;;;;;;;;;;16.88;79.65;99866.58;104595;1301;61173;-87
2023/08/30 08:34:13;;;;;;;;;;;;;;;16.91;79.58;99873.22;104470;1299;75181;-87
2023/08/30 08:37:42;;;;;;;;;;;;;;;16.93;79.62;99879.38;104083;1305;67902;-87
2023/08/30 08:41:08;;;;;;;;;;;;;;;16.94;79.47;99886.63;104147;1306;71320;-87
2023/08/30 08:44:35;;;;;;;;;;;;;;;16.94;79.64;99890.67;104165;1305;61272;-87
2023/08/30 08:48:02;;;;;;;;;;;;;;;16.93;79.43;99892.63;104009;1308;62643;-87
2023/08/30 08:51:30;;;;;;;;;;;;;;;16.87;79.16;99900.59;103553;1314;73886;-87
2023/08/30 08:54:57;;;;;;;;;;;;;;;16.80;79.22;99900.45;103496;1312;67324;-87
2023/08/30 08:58:25;;;;;;;;;;;;;;;16.73;79.20;99903.80;103542;1312;74043;-87
2023/08/30 09:01:51;;;;;;;;;;;;;;;16.64;79.28;99901.48;103563;1314;61167;-87
2023/08/30 09:05:19;;;;;;;;;;;;;;;16.63;79.33;99900.62;103471;1309;59806;-87
2023/08/30 09:08:45;;;;;;;;;;;;;;;16.62;79.35;99904.01;103460;1314;73444;-87
2023/08/30 09:12:22;;;;;;;;;;;;;;;16.61;79.33;99904.79;103381;1314;67445;-87
2023/08/30 09:15:51;;;;;;;;;;;;;;;16.59;79.39;99909.91;103862;1309;75390;-87
2023/08/30 09:19:18;;;;;;;;;;;;;;;16.63;79.47;99910.40;103770;1308;61266;-87
2023/08/30 09:22:44;;;;;;;;;;;;;;;16.67;79.56;99906.90;103577;1314;59583;-87
2023/08/30 09:26:14;;;;;;;;;;;;;;;16.73;79.50;99906.55;104181;1304;73420;-87
2023/08/30 09:29:43;;;;;;;;;;;;;;;16.75;79.45;99907.50;104539;1300;70047;-87
2023/08/30 09:33:07;;;;;;;;;;;;;;;16.83;79.58;99906.72;104528;1300;71328;-87
2023/08/30 09:36:34;;;;;;;;;;;;;;;16.90;79.56;99904.11;104472;1298;59218;-87
2023/08/30 09:40:00;;;;;;;;;;;;;;;16.96;79.18;99903.27;104559;1299;61298;-87
2023/08/30 09:43:26;;;;;;;;;;;;;;;17.01;79.34;99903.52;104566;1299;73304;-87
2023/08/30 09:46:53;;;;;;;;;;;;;;;17.04;79.32;99893.78;104743;1299;67510;-87
2023/08/30 09:50:20;;;;;;;;;;;;;;;17.06;79.43;99892.42;104650;1299;71373;-87
2023/08/30 09:53:46;;;;;;;;;;;;;;;17.18;79.40;99897.52;104559;1299;61167;-87
2023/08/30 09:57:12;;;;;;;;;;;;;;;17.23;79.22;99895.11;104603;1299;61119;-87
2023/08/30 10:00:38;;;;;;;;;;;;;;;17.36;79.23;99893.75;104997;1294;76078;-89
2023/08/30 10:04:05;;;;;;;;;;;;;;;17.59;79.36;99894.36;105122;1293;68817;-88
2023/08/30 10:07:31;;;;;;;;;;;;;;;17.73;79.40;99895.12;105063;1297;72601;-88
2023/08/30 10:10:58;;;;;;;;;;;;;;;17.77;79.06;99896.09;105394;1293;61168;-88
2023/08/30 10:14:24;;;;;;;;;;;;;;;17.69;79.09;99900.58;105133;1292;61106;-88
2023/08/30 10:17:53;;;;;;;;;;;;;;;17.64;79.00;99907.00;105008;1293;75111;-86
2023/08/30 10:20:59;;;;;;;;;;;;;;;17.55;78.91;99904.83;104997;1293;69082;-86
2023/08/30 10:24:25;;;;;;;;;;;;;;;17.48;78.94;99905.77;105527;1286;71864;-86
2023/08/30 10:27:52;;;;;;;;;;;;;;;17.52;79.15;99909.04;105610;1285;61516;-87
2023/08/30 10:31:17;;;;;;;;;;;;;;;17.55;79.07;99906.45;105865;1285;61154;-86
2023/08/30 10:34:44;;;;;;;;;;;;;;;17.59;79.06;99904.99;105729;1285;73496;-86
2023/08/30 10:38:13;;;;;;;;;;;;;;;17.63;79.06;99907.36;105709;1286;68476;-86
2023/08/30 10:41:42;;;;;;;;;;;;;;;17.69;79.11;99905.66;105784;1285;71680;-86
2023/08/30 10:45:11;;;;;;;;;;;;;;;17.72;79.06;99899.89;105704;1286;59478;-86
2023/08/30 10:48:37;;;;;;;;;;;;;;;17.71;78.84;99901.85;105627;1286;59674;-86
2023/08/30 10:52:03;;;;;;;;;;;;;;;17.60;78.71;99901.61;105529;1288;75175;-86
2023/08/30 10:55:29;;;;;;;;;;;;;;;17.50;78.74;99904.92;105577;1284;67942;-86
2023/08/30 10:59:01;;;;;;;;;;;;;;;17.48;78.92;99909.23;105647;1286;72913;-86
2023/08/30 11:02:27;;;;;;;;;;;;;;;17.44;78.74;99906.52;105895;1285;61294;-86
2023/08/30 11:05:53;;;;;;;;;;;;;;;17.42;78.79;99912.56;105422;1288;61330;-86
2023/08/30 11:09:19;;;;;;;;;;;;;;;17.37;78.81;99914.20;105445;1288;73433;-86
2023/08/30 11:12:45;;;;;;;;;;;;;;;17.36;78.75;99913.78;105491;1288;68574;-85
2023/08/30 11:16:11;;;;;;;;;;;;;;;17.28;78.68;99912.09;105431;1288;71316;-86
2023/08/30 11:19:37;;;;;;;;;;;;;;;17.24;78.77;99916.18;105386;1287;61265;-86
2023/08/30 11:23:03;;;;;;;;;;;;;;;17.21;78.77;99916.30;105397;1288;59573;-86
2023/08/30 11:26:30;;;;;;;;;;;;;;;17.23;78.77;99918.33;105858;1288;74448;-86
2023/08/30 11:29:56;;;;;;;;;;;;;;;17.21;78.73;99918.41;105453;1288;68544;-86
2023/08/30 11:33:22;;;;;;;;;;;;;;;17.20;78.83;99922.44;105386;1288;71840;-86
2023/08/30 11:36:48;;;;;;;;;;;;;;;17.22;78.89;99923.55;105528;1288;61436;-86
2023/08/30 11:40:17;;;;;;;;;;;;;;;17.26;79.00;99925.98;106073;1285;59440;-85
2023/08/30 11:43:42;;;;;;;;;;;;;;;17.28;78.81;99924.82;105561;1286;74328;-86
2023/08/30 11:47:09;;;;;;;;;;;;;;;17.33;78.83;99918.99;105652;1285;67228;-86
2023/08/30 11:50:35;;;;;;;;;;;;;;;17.38;78.71;99920.44;105525;1285;71778;-85
2023/08/30 11:54:03;;;;;;;;;;;;;;;17.42;78.79;99922.49;105704;1285;61254;-86
2023/08/30 11:57:27;;;;;;;;;;;;;;;17.41;78.58;99922.04;105148;1293;61252;-85
2023/08/30 12:00:53;;;;;;;;;;;;;;;17.41;78.76;99922.02;105165;1291;73585;-85
2023/08/30 12:04:19;;;;;;;;;;;;;;;17.49;78.85;99928.21;105188;1296;68385;-86
2023/08/30 12:07:46;;;;;;;;;;;;;;;17.54;78.82;99931.39;105263;1290;72333;-86
2023/08/30 12:11:12;;;;;;;;;;;;;;;17.60;78.88;99931.10;105056;1291;61386;-85
2023/08/30 12:14:38;;;;;;;;;;;;;;;17.62;78.80;99934.82;105268;1295;61296;-85
2023/08/30 12:18:04;;;;;;;;;;;;;;;17.63;78.73;99930.57;105266;1291;73767;-85
2023/08/30 12:21:30;;;;;;;;;;;;;;;17.65;78.68;99929.59;105203;1292;67395;-86
2023/08/30 12:24:59;;;;;;;;;;;;;;;17.70;78.71;99931.05;105170;1291;71365;-86
2023/08/30 12:28:25;;;;;;;;;;;;;;;17.73;78.87;99932.26;105565;1286;59321;-86
2023/08/30 12:31:51;;;;;;;;;;;;;;;17.75;78.72;99930.19;105681;1285;61956;-86
2023/08/30 12:35:18;;;;;;;;;;;;;;;17.79;78.75;99926.00;105746;1286;74422;-86
2023/08/30 12:38:44;;;;;;;;;;;;;;;17.78;78.65;99923.08;105656;1285;71165;-85
2023/08/30 12:42:10;;;;;;;;;;;;;;;17.75;78.78;99925.67;105757;1285;71684;-85
2023/08/30 12:45:36;;;;;;;;;;;;;;;17.74;78.73;99930.46;105694;1285;61477;-86
2023/08/30 12:49:01;;;;;;;;;;;;;;;17.75;78.71;99932.64;105786;1285;61223;-86
2023/08/30 12:52:17;;;;;;;;;;;;;;;17.82;78.73;99937.84;105717;1285;74534;-86
2023/08/30 12:55:42;;;;;;;;;;;;;;;17.88;78.64;99936.31;105754;1289;68080;-86
2023/08/30 12:59:08;;;;;;;;;;;;;;;17.91;78.68;99934.73;105717;1285;72633;-86
2023/08/30 13:02:30;;;;;;;;;;;;;;;17.92;78.69;99927.01;105691;1287;59148;-86
2023/08/30 13:05:58;;;;;;;;;;;;;;;17.99;78.73;99922.26;105733;1285;60596;-86
2023/08/30 13:09:22;;;;;;;;;;;;;;;18.03;78.53;99928.62;106299;1285;74059;-86
2023/08/30 13:12:48;;;;;;;;;;;;;;;18.06;78.55;99924.98;105853;1285;67479;-86
2023/08/30 13:16:14;;;;;;;;;;;;;;;17.99;78.50;99920.69;105672;1285;72948;-86
2023/08/30 13:19:40;;;;;;;;;;;;;;;17.99;78.55;99916.16;105747;1285;61062;-86
2023/08/30 13:23:06;;;;;;;;;;;;;;;18.04;78.52;99913.42;105976;1286;59229;-86
2023/08/30 13:26:32;;;;;;;;;;;;;;;18.13;78.56;99910.96;105702;1285;77149;-86
2023/08/30 13:29:58;;;;;;;;;;;;;;;18.28;78.53;99913.38;105672;1286;67277;-86
2023/08/30 13:33:24;;;;;;;;;;;;;;;18.34;78.37;99911.09;105692;1285;73996;-86
2023/08/30 13:36:36;;;;;;;;;;;;;;;18.25;78.24;99911.61;105767;1288;59465;-86
2023/08/30 13:40:01;;;;;;;;;;;;;;;18.15;78.25;99914.14;105635;1285;60092;-86
2023/08/30 13:43:27;;;;;;;;;;;;;;;18.07;78.38;99915.46;105810;1285;74758;-85
2023/08/30 13:46:53;;;;;;;;;;;;;;;17.99;78.33;99914.02;105673;1285;67300;-86
2023/08/30 13:50:00;;;;;;;;;;;;;;;17.95;78.43;99915.83;105740;1285;71426;-86
2023/08/30 13:53:27;;;;;;;;;;;;;;;17.92;78.43;99911.11;105751;1285;59298;-86
2023/08/30 13:56:52;;;;;;;;;;;;;;;17.93;78.38;99906.36;105770;1285;60891;-86
2023/08/30 14:00:24;;;;;;;;;;;;;;;17.93;78.46;99899.25;105774;1285;80863;-85
2023/08/30 14:03:50;;;;;;;;;;;;;;;17.92;78.44;99896.63;105255;1289;67963;-86
2023/08/30 14:07:16;;;;;;;;;;;;;;;17.92;78.59;99896.11;105461;1288;75363;-86
2023/08/30 14:10:42;;;;;;;;;;;;;;;17.94;78.41;99892.73;105361;1290;61032;-86
2023/08/30 14:14:08;;;;;;;;;;;;;;;17.88;78.32;99898.77;105899;1288;59524;-85
2023/08/30 14:17:33;;;;;;;;;;;;;;;17.83;78.40;99901.52;105391;1291;76075;-87
2023/08/30 14:21:03;;;;;;;;;;;;;;;17.82;78.39;99904.70;105382;1289;68338;-87
2023/08/30 14:24:29;;;;;;;;;;;;;;;17.79;78.47;99902.60;105473;1288;72661;-86
2023/08/30 14:27:55;;;;;;;;;;;;;;;17.83;78.30;99899.92;105532;1288;63865;-87
2023/08/30 14:31:21;;;;;;;;;;;;;;;17.85;78.44;99903.66;105607;1288;59698;-86
2023/08/30 14:34:48;;;;;;;;;;;;;;;17.85;78.46;99906.96;105548;1286;73191;-87
2023/08/30 14:38:14;;;;;;;;;;;;;;;17.87;78.53;99909.65;105743;1285;71207;-87
2023/08/30 14:41:41;;;;;;;;;;;;;;;17.89;78.43;99909.73;105775;1285;72538;-87
2023/08/30 14:45:10;;;;;;;;;;;;;;;17.88;78.46;99909.27;105653;1285;61039;-89
2023/08/30 14:48:43;;;;;;;;;;;;;;;17.84;78.32;99911.06;105105;1291;59746;-88
2023/08/30 14:52:28;;;;;;;;;;;;;;;;;;;;;
2023/08/30 14:55:45;;;;;;;;;;;;;;;17.78;78.48;99913.27;104684;1297;67257;-88
2023/08/30 14:59:12;;;;;;;;;;;;;;;17.78;78.42;99920.45;104637;1301;72624;-89
2023/08/30 15:02:38;;;;;;;;;;;;;;;17.83;78.29;99920.90;104622;1300;60285;-88
2023/08/30 15:06:05;;;;;;;;;;;;;;;17.83;78.19;99918.27;104607;1297;61216;-88
2023/08/30 15:09:41;;;;;;;;;;;;;;;;;;;;;
2023/08/30 15:12:58;;;;;;;;;;;;;;;17.79;78.27;99911.48;104268;1303;68964;-88
2023/08/30 15:16:24;;;;;;;;;;;;;;;17.78;78.23;99911.38;104248;1302;71336;-88
2023/08/30 15:19:54;;;;;;;;;;;;;;;17.77;78.18;99914.62;104275;1303;61135;-88
2023/08/30 15:23:17;;;;;;;;;;;;;;;17.70;78.04;99910.96;103726;1308;61267;-88
2023/08/30 15:26:44;;;;;;;;;;;;;;;17.65;78.16;99906.93;104170;1304;75072;-88
2023/08/30 15:30:11;;;;;;;;;;;;;;;17.66;78.37;99906.90;104257;1306;67984;-87
2023/08/30 15:33:36;;;;;;;;;;;;;;;17.66;78.19;99909.15;104118;1305;71474;-87
2023/08/30 15:37:04;;;;;;;;;;;;;;;17.68;78.23;99909.73;104092;1305;59528;-89
2023/08/30 15:40:31;;;;;;;;;;;;;;;17.70;78.36;99915.02;104093;1305;62604;-89
2023/08/30 15:43:56;;;;;;;;;;;;;;;17.70;78.26;99918.67;104094;1311;74681;-89
2023/08/30 15:47:23;;;;;;;;;;;;;;;17.63;78.24;99917.80;104492;1300;67459;-89
2023/08/30 15:50:49;;;;;;;;;;;;;;;17.54;78.31;99920.73;104583;1299;71321;-89
2023/08/30 15:54:17;;;;;;;;;;;;;;;17.47;78.36;99926.06;104640;1299;61278;-88
2023/08/30 15:57:43;;;;;;;;;;;;;;;17.40;78.16;99934.06;104615;1297;59838;-88
2023/08/30 16:00:48;;;;;;;;;;;;;;;17.35;78.22;99933.86;105962;1284;73836;-86
2023/08/30 16:04:13;;;;;;;;;;;;;;;17.28;78.32;99935.61;105940;1285;67325;-88
2023/08/30 16:07:39;;;;;;;;;;;;;;;17.24;78.30;99935.83;105744;1283;71437;-89
2023/08/30 16:11:06;;;;;;;;;;;;;;;17.20;78.30;99936.39;105932;1282;60894;-88
2023/08/30 16:14:44;;;;;;;;;;;;;;;17.16;78.23;99933.66;105983;1282;61164;-89
2023/08/30 16:18:12;;;;;;;;;;;;;;;17.10;78.26;99932.42;105851;1285;74698;-90
2023/08/30 16:21:38;;;;;;;;;;;;;;;17.08;78.28;99931.69;105842;1285;68146;-89
2023/08/30 16:24:49;;;;;;;;;;;;;;;17.06;78.25;99936.01;105852;1284;71075;-89
2023/08/30 16:28:16;;;;;;;;;;;;;;;17.02;78.30;99936.88;105744;1285;61248;-88
2023/08/30 16:31:43;;;;;;;;;;;;;;;17.01;78.31;99940.96;105841;1285;61286;-89
2023/08/30 16:34:39;;;;;;;;;;;;;;;16.99;78.27;99942.29;106069;1282;73152;-87
2023/08/30 16:38:07;;;;;;;;;;;;;;;16.98;78.26;99944.08;105835;1288;68068;-88
2023/08/30 16:41:33;;;;;;;;;;;;;;;16.98;78.31;99945.48;105748;1286;71263;-88
2023/08/30 16:45:01;;;;;;;;;;;;;;;16.96;78.33;99950.95;105853;1286;59095;-88
2023/08/30 16:48:29;;;;;;;;;;;;;;;16.94;78.39;99955.77;105987;1283;59742;-88
2023/08/30 16:51:55;;;;;;;;;;;;;;;16.91;78.41;99957.65;105872;1283;73463;-88
2023/08/30 16:55:21;;;;;;;;;;;;;;;16.88;78.38;99964.06;105863;1288;67167;-88
2023/08/30 16:58:32;;;;;;;;;;;;;;;16.85;78.35;99962.66;105815;1288;71229;-88
2023/08/30 17:01:58;;;;;;;;;;;;;;;16.80;78.31;99968.17;105892;1286;59791;-87
2023/08/30 17:05:25;;;;;;;;;;;;;;;16.75;78.28;99971.54;105934;1284;63199;-88
2023/08/30 17:08:52;;;;;;;;;;;;;;;16.71;78.41;99976.61;105954;1292;75879;-87
2023/08/30 17:12:18;;;;;;;;;;;;;;;16.68;78.48;99982.71;105923;1288;67391;-89
2023/08/30 17:15:44;;;;;;;;;;;;;;;16.62;78.43;99988.05;105912;1284;72014;-88
2023/08/30 17:19:10;;;;;;;;;;;;;;;16.60;78.42;99992.52;105894;1286;60803;-88
2023/08/30 17:22:37;;;;;;;;;;;;;;;16.58;78.46;99993.16;105931;1288;61119;-87
2023/08/30 17:25:25;;;;;;;;;;;;;;;16.57;78.47;99993.22;105871;1287;73187;-86